Time;durP1;ratioP1;P1;durP2;ratioP2;P2;SDS_P1;SDS_P2;PMS_P1;PMS_P2;Temp;Humidity;BMP_temperature;BMP_pressure;BME280_temperature;BME280_humidity;BME280_pressure;Samples;Min_cycle;Max_cycle;Signal;HPM_P1;HPM_P2
2022/09/30 00:00:19;;;;;;;17.80;10.45;;;;;;;6.48;100.00;94560.28;5005070;28;20037;-76
2022/09/30 00:03:04;;;;;;;18.92;10.40;;;;;;;6.51;100.00;94564.19;5021959;28;20053;-76
2022/09/30 00:05:30;;;;;;;19.95;10.77;;;;;;;6.55;100.00;94570.44;5037601;28;20053;-76
2022/09/30 00:07:55;;;;;;;21.58;11.13;;;;;;;6.49;100.00;94566.28;5026582;28;20038;-76
2022/09/30 00:10:21;;;;;;;20.35;11.32;;;;;;;6.49;100.00;94576.72;5011454;28;20045;-76
2022/09/30 00:12:47;;;;;;;20.38;11.90;;;;;;;6.46;100.00;94572.03;5039662;28;20064;-76
2022/09/30 00:15:13;;;;;;;21.23;11.38;;;;;;;6.53;100.00;94575.16;5037975;28;20033;-76
2022/09/30 00:17:38;;;;;;;21.52;11.68;;;;;;;6.59;100.00;94576.69;5047736;28;20045;-76
2022/09/30 00:20:04;;;;;;;19.80;11.18;;;;;;;6.59;100.00;94581.91;5032641;28;20056;-76
2022/09/30 00:22:30;;;;;;;17.92;9.98;;;;;;;6.55;100.00;94586.13;5012647;28;20056;-76
2022/09/30 00:24:55;;;;;;;18.63;10.65;;;;;;;6.54;100.00;94585.34;5030325;28;20042;-76
2022/09/30 00:27:21;;;;;;;20.50;11.23;;;;;;;6.55;100.00;94575.66;5018317;28;20495;-76
2022/09/30 00:29:46;;;;;;;19.48;11.07;;;;;;;6.57;100.00;94573.56;5030962;28;20042;-76
2022/09/30 00:32:12;;;;;;;19.50;11.13;;;;;;;6.52;100.00;94581.41;5030854;28;20165;-76
2022/09/30 00:34:37;;;;;;;19.48;10.85;;;;;;;6.56;100.00;94577.22;5030943;28;20099;-76
2022/09/30 00:37:03;;;;;;;24.15;12.32;;;;;;;6.52;100.00;94576.19;5046540;28;20047;-76
2022/09/30 00:39:30;;;;;;;20.15;11.65;;;;;;;6.51;100.00;94572.03;5037340;28;20111;-76
2022/09/30 00:42:00;;;;;;;19.85;11.70;;;;;;;6.54;100.00;94576.72;5028029;28;20045;-76
2022/09/30 00:44:46;;;;;;;20.67;11.45;;;;;;;6.52;100.00;94576.19;5030354;28;20076;-76
2022/09/30 00:47:28;;;;;;;17.75;9.80;;;;;;;6.53;100.00;94572.53;5042522;28;20064;-75
2022/09/30 00:49:56;;;;;;;20.23;10.68;;;;;;;6.54;100.00;94563.66;5029044;28;20037;-76
2022/09/30 00:52:22;;;;;;;18.08;10.52;;;;;;;6.58;100.00;94569.94;5042203;28;20044;-75
2022/09/30 00:54:49;;;;;;;17.08;10.32;;;;;;;6.56;100.00;94572.00;5004944;28;20046;-76
2022/09/30 00:57:16;;;;;;;17.63;9.45;;;;;;;6.51;100.00;94569.44;5018553;28;20096;-76
2022/09/30 00:59:46;;;;;;;16.50;9.88;;;;;;;6.54;100.00;94585.34;5030406;28;20052;-75
2022/09/30 01:02:13;;;;;;;19.48;9.80;;;;;;;6.49;100.00;94587.97;5028470;28;20049;-76
2022/09/30 01:04:41;;;;;;;18.52;9.98;;;;;;;6.54;100.00;94589.78;5043132;28;20053;-76
2022/09/30 01:07:09;;;;;;;18.65;10.55;;;;;;;6.49;100.00;94587.19;5033205;28;20038;-76
2022/09/30 01:09:38;;;;;;;17.05;10.20;;;;;;;6.58;100.00;94596.06;5010890;28;20527;-76
2022/09/30 01:12:12;;;;;;;15.90;9.25;;;;;;;6.58;100.00;94603.91;5034416;28;20048;-76
2022/09/30 01:14:39;;;;;;;16.40;9.80;;;;;;;6.50;100.00;94601.81;5025095;28;20038;-76
2022/09/30 01:17:20;;;;;;;18.10;9.40;;;;;;;6.40;100.00;94590.34;5020899;28;20069;-76
2022/09/30 01:20:10;;;;;;;21.48;10.40;;;;;;;6.33;100.00;94597.66;5030125;28;20041;-76
2022/09/30 01:22:50;;;;;;;18.33;10.40;;;;;;;6.37;100.00;94601.31;5032460;28;20033;-76
2022/09/30 01:25:35;;;;;;;19.55;9.93;;;;;;;6.37;100.00;94606.56;5026855;28;20112;-75
2022/09/30 01:28:16;;;;;;;21.65;10.52;;;;;;;6.37;100.00;94596.09;5009062;28;20042;-75
2022/09/30 01:31:07;;;;;;;17.10;10.20;;;;;;;6.32;100.00;94603.97;5031666;28;20045;-76
2022/09/30 01:33:38;;;;;;;20.95;9.85;;;;;;;6.37;100.00;94606.56;5016065;28;20037;-76
2022/09/30 01:36:33;;;;;;;17.48;9.50;;;;;;;6.35;100.00;94613.88;5027813;28;20037;-76
2022/09/30 01:39:34;;;;;;;16.65;9.65;;;;;;;6.32;100.00;94611.81;4967840;28;20111;-76
2022/09/30 01:42:03;;;;;;;14.63;8.77;;;;;;;6.51;100.00;94621.69;5024317;28;20064;-76
2022/09/30 01:44:49;;;;;;;17.75;9.80;;;;;;;6.58;100.00;94622.22;5024684;28;20053;-75
2022/09/30 01:47:28;;;;;;;17.63;9.55;;;;;;;6.44;100.00;94621.97;5020454;28;20774;-76
2022/09/30 01:50:17;;;;;;;16.00;9.38;;;;;;;6.37;100.00;94617.00;5026281;28;20077;-76
2022/09/30 01:52:57;;;;;;;17.88;10.00;;;;;;;6.30;100.00;94624.31;5026440;28;20458;-76
2022/09/30 01:55:34;;;;;;;17.50;9.73;;;;;;;6.31;100.00;94623.28;5021661;28;20388;-76
2022/09/30 01:58:42;;;;;;;17.58;9.07;;;;;;;6.52;100.00;94612.78;5030638;28;20045;-76
2022/09/30 02:01:15;;;;;;;19.02;9.77;;;;;;;6.39;100.00;94620.16;5020491;28;20123;-76
2022/09/30 02:03:51;;;;;;;17.80;9.18;;;;;;;6.43;100.00;94624.84;5031778;28;20049;-76
2022/09/30 02:06:22;;;;;;;15.60;9.75;;;;;;;6.40;100.00;94626.16;5028671;28;20033;-76
2022/09/30 02:08:59;;;;;;;17.30;9.57;;;;;;;6.28;100.00;94623.03;5042542;28;20041;-76
2022/09/30 02:11:28;;;;;;;17.55;9.82;;;;;;;6.25;100.00;94629.56;5006929;28;20126;-76
2022/09/30 02:14:15;;;;;;;19.55;9.32;;;;;;;6.35;100.00;94628.75;5009987;28;20040;-76
2022/09/30 02:16:47;;;;;;;17.25;9.48;;;;;;;6.34;100.00;94622.00;5024814;28;20041;-76
2022/09/30 02:19:42;;;;;;;15.45;8.88;;;;;;;6.33;100.00;94621.19;5029993;28;20500;-76
2022/09/30 02:22:12;;;;;;;19.77;9.80;;;;;;;6.43;100.00;94620.38;5005695;28;20434;-76
2022/09/30 02:24:39;;;;;;;16.35;9.38;;;;;;;6.37;100.00;94606.56;5024143;28;20499;-76
2022/09/30 02:27:10;;;;;;;15.35;8.85;;;;;;;6.33;100.00;94620.41;5048595;28;20276;-75
2022/09/30 02:29:44;;;;;;;17.70;9.30;;;;;;;6.20;100.00;94616.50;5034688;28;20041;-76
2022/09/30 02:32:36;;;;;;;17.23;9.40;;;;;;;6.16;100.00;94621.50;5033173;28;20045;-77
2022/09/30 02:35:12;;;;;;;19.20;9.43;;;;;;;6.17;100.00;94623.03;5022480;28;20064;-77
2022/09/30 02:37:42;;;;;;;19.20;9.15;;;;;;;6.10;100.00;94616.53;5014770;28;20041;-76
2022/09/30 02:40:38;;;;;;;18.55;9.20;;;;;;;6.19;100.00;94612.31;5032749;28;20057;-76
2022/09/30 02:43:04;;;;;;;16.88;9.13;;;;;;;6.07;100.00;94608.16;5037472;28;20033;-76
2022/09/30 02:45:38;;;;;;;17.40;9.55;;;;;;;5.93;100.00;94607.09;5034962;28;20061;-76
2022/09/30 02:48:44;;;;;;;15.68;9.40;;;;;;;5.85;100.00;94615.47;5035232;28;20094;-76
2022/09/30 02:51:48;;;;;;;17.83;10.05;;;;;;;5.95;100.00;94620.69;5028482;28;20034;-76
2022/09/30 02:54:29;;;;;;;19.45;10.80;;;;;;;5.94;100.00;94619.09;5023045;28;20180;-76
2022/09/30 02:57:23;;;;;;;25.77;10.52;;;;;;;5.91;100.00;94624.84;5030790;28;20053;-76
2022/09/30 02:59:51;;;;;;;18.05;9.65;;;;;;;5.91;100.00;94627.47;5023770;28;20136;-75
2022/09/30 03:02:18;;;;;;;16.70;8.18;;;;;;;5.91;100.00;94630.06;5038520;28;20052;-75
2022/09/30 03:04:45;;;;;;;19.42;10.10;;;;;;;5.89;100.00;94642.63;5026040;28;20053;-75
2022/09/30 03:07:11;;;;;;;18.88;10.23;;;;;;;5.83;100.00;94641.03;5043127;28;20044;-75
2022/09/30 03:09:37;;;;;;;17.63;9.32;;;;;;;5.97;100.00;94649.94;5042810;28;20045;-75
2022/09/30 03:12:25;;;;;;;15.90;9.00;;;;;;;5.98;100.00;94656.75;5015708;28;20045;-75
2022/09/30 03:15:06;;;;;;;18.98;8.77;;;;;;;6.02;100.00;94663.00;5026932;28;20067;-75
2022/09/30 03:17:38;;;;;;;17.63;9.07;;;;;;;5.92;100.00;94657.75;5012507;28;20052;-75
2022/09/30 03:20:20;;;;;;;19.20;9.70;;;;;;;6.05;100.00;94654.66;5033078;28;20049;-76
2022/09/30 03:23:13;;;;;;;14.98;8.30;;;;;;;5.99;100.00;94655.72;5032581;28;20045;-76
2022/09/30 03:25:51;;;;;;;21.80;9.35;;;;;;;5.96;100.00;94653.59;5032630;28;20073;-76
2022/09/30 03:28:44;;;;;;;16.83;8.93;;;;;;;5.86;100.00;94648.34;5012532;28;20041;-76
2022/09/30 03:31:42;;;;;;;17.98;10.18;;;;;;;5.79;100.00;94663.47;5027735;28;20057;-76
2022/09/30 03:34:32;;;;;;;18.83;9.20;;;;;;;5.80;100.00;94665.81;5018963;28;20134;-76
2022/09/30 03:37:20;;;;;;;17.73;9.30;;;;;;;5.84;100.00;94676.56;5028930;28;20049;-76
2022/09/30 03:40:00;;;;;;;18.45;9.55;;;;;;;6.00;100.00;94675.53;5026512;28;20542;-76
2022/09/30 03:42:36;;;;;;;17.33;9.07;;;;;;;5.91;100.00;94687.53;5030865;28;20499;-76
2022/09/30 03:45:12;;;;;;;16.20;9.13;;;;;;;5.91;100.00;94692.75;5022030;28;20108;-77
2022/09/30 03:47:44;;;;;;;19.33;9.73;;;;;;;5.94;100.00;94692.22;5032146;28;20046;-77
2022/09/30 03:50:14;;;;;;;20.42;9.30;;;;;;;5.97;100.00;94691.72;5006362;28;20072;-77
2022/09/30 03:52:40;;;;;;;17.15;8.43;;;;;;;6.00;100.00;94699.03;5034120;28;20498;-77
2022/09/30 03:55:08;;;;;;;18.25;9.15;;;;;;;6.04;100.00;94687.03;5039054;28;20037;-77
2022/09/30 03:57:33;;;;;;;18.33;8.98;;;;;;;5.97;100.00;94691.72;5015179;28;20044;-77
2022/09/30 03:59:59;;;;;;;18.50;8.95;;;;;;;5.95;100.00;94693.81;5014021;28;20042;-76
2022/09/30 04:02:26;;;;;;;15.23;8.38;;;;;;;5.90;100.00;94688.56;5026764;28;20041;-76
2022/09/30 04:04:51;;;;;;;18.42;9.15;;;;;;;5.86;100.00;94690.91;5038192;28;20098;-76
2022/09/30 04:07:17;;;;;;;18.90;9.90;;;;;;;5.77;100.00;94687.22;5030593;28;20375;-76
2022/09/30 04:09:43;;;;;;;17.63;9.05;;;;;;;5.76;100.00;94687.50;5030559;28;20050;-76
2022/09/30 04:12:09;;;;;;;19.77;9.88;;;;;;;5.81;100.00;94690.13;5046571;28;20084;-76
2022/09/30 04:14:35;;;;;;;19.30;9.25;;;;;;;5.79;100.00;94694.81;5051597;28;20037;-76
2022/09/30 04:17:02;;;;;;;16.85;8.88;;;;;;;5.86;100.00;94705.78;5059973;28;20036;-75
2022/09/30 04:19:28;;;;;;;16.17;8.60;;;;;;;5.81;100.00;94703.19;5056190;28;20033;-75
2022/09/30 04:21:54;;;;;;;17.42;9.15;;;;;;;5.80;100.00;94706.81;5063166;28;20234;-75
2022/09/30 04:24:21;;;;;;;18.35;9.48;;;;;;;5.79;100.00;94707.88;5060156;28;20041;-75
2022/09/30 04:26:47;;;;;;;16.17;8.88;;;;;;;5.73;100.00;94713.09;5064599;28;20028;-75
2022/09/30 04:29:13;;;;;;;18.52;8.68;;;;;;;5.75;100.00;94701.59;5064847;28;20333;-75
2022/09/30 04:31:39;;;;;;;19.92;9.50;;;;;;;5.67;100.00;94698.44;5046655;28;20045;-77
2022/09/30 04:34:05;;;;;;;15.68;8.98;;;;;;;5.65;100.00;94705.75;5032258;28;20041;-77
2022/09/30 04:36:30;;;;;;;17.75;9.23;;;;;;;5.66;100.00;94709.13;5034778;28;20045;-77
2022/09/30 04:38:56;;;;;;;17.98;9.65;;;;;;;5.68;100.00;94710.44;5026090;28;20555;-77
2022/09/30 04:41:22;;;;;;;21.88;10.38;;;;;;;5.66;100.00;94712.56;5011320;28;20046;-77
2022/09/30 04:43:47;;;;;;;19.73;9.27;;;;;;;5.63;100.00;94718.28;5013307;28;20102;-77
2022/09/30 04:46:14;;;;;;;19.17;10.25;;;;;;;5.70;100.00;94724.06;5038315;28;20045;-78
2022/09/30 04:48:44;;;;;;;21.23;10.20;;;;;;;5.65;100.00;94731.84;5012523;28;20055;-76
2022/09/30 04:51:20;;;;;;;22.45;10.48;;;;;;;5.72;100.00;94727.19;5029696;28;20041;-76
2022/09/30 04:53:47;;;;;;;18.08;9.75;;;;;;;5.70;100.00;94734.50;5022879;28;20037;-77
2022/09/30 04:56:13;;;;;;;19.80;10.35;;;;;;;5.80;100.00;94730.31;5029440;28;20258;-77
2022/09/30 04:58:39;;;;;;;21.35;10.00;;;;;;;5.73;100.00;94739.19;5027741;28;20101;-77
2022/09/30 05:01:07;;;;;;;22.35;11.07;;;;;;;5.66;100.00;94740.47;5027342;28;20064;-76
2022/09/30 05:03:33;;;;;;;22.85;10.98;;;;;;;5.60;100.00;94750.09;5028764;28;20068;-77
2022/09/30 05:05:59;;;;;;;23.70;11.55;;;;;;;5.62;100.00;94742.81;5015075;28;20045;-77
2022/09/30 05:08:25;;;;;;;22.55;10.85;;;;;;;5.54;100.00;94740.69;5035882;28;20120;-77
2022/09/30 05:10:58;;;;;;;21.65;10.35;;;;;;;5.68;100.00;94736.56;5026894;28;20121;-78
2022/09/30 05:13:25;;;;;;;19.88;10.63;;;;;;;5.67;100.00;94742.81;4999327;28;20038;-78
2022/09/30 05:15:51;;;;;;;21.00;10.32;;;;;;;5.57;100.00;94734.97;5030350;28;20069;-78
2022/09/30 05:18:19;;;;;;;19.23;9.30;;;;;;;5.60;100.00;94737.03;5017240;28;20438;-78
2022/09/30 05:20:44;;;;;;;23.60;9.70;;;;;;;5.54;100.00;94743.31;5035228;28;20046;-78
2022/09/30 05:23:10;;;;;;;18.80;9.82;;;;;;;5.54;100.00;94757.13;5016153;28;21754;-81
2022/09/30 05:25:35;;;;;;;21.80;10.40;;;;;;;5.54;100.00;94756.34;5020186;28;20049;-77
2022/09/30 05:28:01;;;;;;;19.08;9.57;;;;;;;5.59;100.00;94763.41;5018168;28;20116;-77
2022/09/30 05:30:27;;;;;;;21.27;10.70;;;;;;;5.60;100.00;94760.53;5024407;28;20037;-78
2022/09/30 05:32:52;;;;;;;18.52;9.73;;;;;;;5.59;100.00;94769.44;5031121;28;20041;-77
2022/09/30 05:35:18;;;;;;;18.50;9.00;;;;;;;5.54;100.00;94762.34;5015038;28;20045;-77
2022/09/30 05:37:43;;;;;;;20.50;9.73;;;;;;;5.61;100.00;94767.34;5034646;28;20041;-77
2022/09/30 05:40:09;;;;;;;20.98;10.00;;;;;;;5.70;100.00;94765.00;5030058;28;20292;-77
2022/09/30 05:42:34;;;;;;;20.58;10.35;;;;;;;5.80;100.00;94769.50;5032107;28;20104;-76
2022/09/30 05:45:02;;;;;;;18.83;10.13;;;;;;;5.83;100.00;94774.19;5012020;28;20045;-77
2022/09/30 05:47:27;;;;;;;21.70;10.65;;;;;;;5.80;100.00;94772.09;5014670;28;20120;-76
2022/09/30 05:49:53;;;;;;;21.42;10.38;;;;;;;5.84;100.00;94770.56;5036241;28;20123;-77
2022/09/30 05:52:18;;;;;;;20.10;9.88;;;;;;;5.88;100.00;94782.06;5039669;28;20095;-77
2022/09/30 05:54:44;;;;;;;22.05;10.60;;;;;;;5.93;100.00;94784.66;5026753;28;20053;-77
2022/09/30 05:57:09;;;;;;;20.83;10.10;;;;;;;5.93;100.00;94783.88;5039919;28;20423;-77
2022/09/30 05:59:36;;;;;;;24.50;11.27;;;;;;;6.05;100.00;94787.88;5023210;28;20045;-77
2022/09/30 06:02:02;;;;;;;23.30;10.93;;;;;;;6.12;100.00;94786.81;5043150;28;20082;-77
2022/09/30 06:04:28;;;;;;;24.13;11.45;;;;;;;6.16;100.00;94798.34;5023775;28;20144;-76
2022/09/30 06:06:53;;;;;;;25.88;12.05;;;;;;;6.34;100.00;94803.06;5034491;28;20602;-76
2022/09/30 06:09:19;;;;;;;23.80;11.52;;;;;;;6.37;100.00;94805.16;5034253;28;20037;-76
2022/09/30 06:11:44;;;;;;;25.77;11.55;;;;;;;6.46;100.00;94802.03;5030563;28;20050;-76
2022/09/30 06:14:10;;;;;;;27.13;11.00;;;;;;;6.48;100.00;94808.59;5029944;28;20050;-76
2022/09/30 06:16:35;;;;;;;23.67;10.77;;;;;;;6.63;100.00;94805.19;5015732;28;20578;-76
2022/09/30 06:19:01;;;;;;;24.10;12.13;;;;;;;6.60;100.00;94803.09;5031468;28;20045;-76
2022/09/30 06:21:27;;;;;;;26.50;12.35;;;;;;;6.70;100.00;94808.31;5015208;28;20111;-76
2022/09/30 06:23:53;;;;;;;29.25;12.45;;;;;;;6.74;100.00;94808.59;5026121;28;20048;-76
2022/09/30 06:26:19;;;;;;;27.73;11.30;;;;;;;6.78;100.00;94814.06;5032249;28;20488;-76
2022/09/30 06:28:44;;;;;;;21.75;11.35;;;;;;;6.82;100.00;94804.66;5038062;28;20164;-76
2022/09/30 06:31:10;;;;;;;28.23;12.85;;;;;;;6.83;100.00;94806.25;5025430;28;20241;-75
2022/09/30 06:33:36;;;;;;;23.77;11.93;;;;;;;7.01;100.00;94818.78;5029396;28;20043;-75
2022/09/30 06:36:03;;;;;;;25.20;12.15;;;;;;;7.00;100.00;94816.44;5012193;28;20116;-75
2022/09/30 06:38:30;;;;;;;23.10;11.18;;;;;;;6.91;100.00;94808.31;5029952;28;20052;-75
2022/09/30 06:40:58;;;;;;;23.00;11.38;;;;;;;7.02;100.00;94822.94;5027860;28;20491;-76
2022/09/30 06:43:24;;;;;;;24.15;11.10;;;;;;;7.14;100.00;94827.13;5027397;28;20317;-77
2022/09/30 06:45:50;;;;;;;21.27;10.82;;;;;;;7.08;100.00;94824.53;5030634;28;20404;-76
2022/09/30 06:48:16;;;;;;;25.42;10.85;;;;;;;7.14;100.00;94832.38;5012856;28;20083;-75
2022/09/30 06:50:42;;;;;;;24.63;11.05;;;;;;;7.14;100.00;94832.38;5029495;28;20041;-77
2022/09/30 06:53:10;;;;;;;29.58;10.98;;;;;;;7.24;100.00;94840.19;5033699;28;20068;-78
2022/09/30 06:55:37;;;;;;;29.27;13.20;;;;;;;7.24;100.00;94837.56;5033526;28;20046;-78
2022/09/30 06:58:08;;;;;;;28.80;12.40;;;;;;;7.31;100.00;94843.31;5029105;28;20495;-77
2022/09/30 07:00:35;;;;;;;28.75;12.27;;;;;;;7.38;100.00;94849.06;5033677;28;20049;-77
2022/09/30 07:03:01;;;;;;;27.02;12.32;;;;;;;7.55;100.00;94848.00;5027461;28;20065;-76
2022/09/30 07:05:26;;;;;;;29.58;12.68;;;;;;;7.64;100.00;94856.88;5006357;28;20075;-76
2022/09/30 07:07:53;;;;;;;26.90;11.85;;;;;;;7.68;100.00;94855.28;5020837;28;20113;-76
2022/09/30 07:10:19;;;;;;;25.15;11.25;;;;;;;7.76;100.00;94854.75;5029926;28;20581;-76
2022/09/30 07:12:52;;;;;;;26.27;12.52;;;;;;;7.84;100.00;94860.50;5026832;28;20095;-77
2022/09/30 07:15:22;;;;;;;25.63;11.45;;;;;;;7.70;100.00;94863.69;5026704;28;20413;-76
2022/09/30 07:17:57;;;;;;;29.67;12.52;;;;;;;7.85;100.00;94862.84;5021456;28;20050;-76
2022/09/30 07:20:23;;;;;;;25.38;10.75;;;;;;;7.90;100.00;94864.66;5009508;28;20065;-76
2022/09/30 07:22:49;;;;;;;28.00;11.85;;;;;;;8.05;100.00;94867.22;5034783;28;20076;-75
2022/09/30 07:25:15;;;;;;;23.80;10.90;;;;;;;8.07;100.00;94865.09;5012619;28;20064;-76
2022/09/30 07:27:40;;;;;;;24.95;11.52;;;;;;;8.00;100.00;94859.38;5010059;28;20045;-75
2022/09/30 07:30:07;;;;;;;22.50;10.30;;;;;;;8.09;100.00;94863.00;5028989;28;20450;-76
2022/09/30 07:32:32;;;;;;;23.85;10.52;;;;;;;8.14;100.00;94864.81;5018667;28;20055;-75
2022/09/30 07:34:58;;;;;;;21.33;9.48;;;;;;;8.29;100.00;94861.34;5028503;28;20450;-77
2022/09/30 07:37:25;;;;;;;25.42;11.38;;;;;;;8.24;100.00;94858.75;5032564;28;20045;-75
2022/09/30 07:39:51;;;;;;;24.65;11.45;;;;;;;8.35;100.00;94849.78;5029210;28;20073;-77
2022/09/30 07:42:21;;;;;;;24.35;10.60;;;;;;;8.29;100.00;94850.88;5027807;28;20052;-75
2022/09/30 07:44:50;;;;;;;28.10;10.88;;;;;;;8.21;100.00;94849.59;5034269;28;20041;-76
2022/09/30 07:47:17;;;;;;;24.35;10.90;;;;;;;8.25;100.00;94855.09;5020363;28;20546;-75
2022/09/30 07:49:42;;;;;;;24.45;11.32;;;;;;;8.43;100.00;94864.94;5027460;28;20033;-79
2022/09/30 07:52:11;;;;;;;21.00;9.18;;;;;;;8.44;100.00;94863.91;5032194;28;20098;-76
2022/09/30 07:54:37;;;;;;;20.02;9.57;;;;;;;8.39;100.00;94866.53;5038884;28;20048;-75
2022/09/30 07:57:04;;;;;;;21.70;9.52;;;;;;;8.51;100.00;94868.09;5032878;28;20069;-76
2022/09/30 07:59:33;;;;;;;25.02;10.15;;;;;;;8.43;100.00;94870.19;5029299;28;20558;-75
2022/09/30 08:01:59;;;;;;;21.13;9.63;;;;;;;8.47;100.00;94873.84;5030545;28;20071;-77
2022/09/30 08:04:25;;;;;;;20.67;9.10;;;;;;;8.76;100.00;94875.75;5026368;28;20103;-79
2022/09/30 08:06:55;;;;;;;16.92;8.00;;;;;;;8.69;100.00;94885.78;5029490;28;20045;-76
2022/09/30 08:09:23;;;;;;;15.15;7.55;;;;;;;9.04;100.00;94889.22;5033741;28;20108;-75
2022/09/30 08:11:48;;;;;;;15.43;7.13;;;;;;;9.05;100.00;94888.19;5020360;28;20120;-76
2022/09/30 08:14:20;;;;;;;16.17;7.78;;;;;;;9.12;100.00;94888.66;5012623;28;20084;-75
2022/09/30 08:16:45;;;;;;;14.18;6.60;;;;;;;9.30;100.00;94889.03;5028824;28;20590;-77
2022/09/30 08:19:16;;;;;;;10.95;6.15;;;;;;;9.40;100.00;94883.69;5024815;28;20144;-75
2022/09/30 08:21:43;;;;;;;10.15;5.20;;;;;;;9.48;100.00;94885.72;5009991;28;20045;-75
2022/09/30 08:24:10;;;;;;;14.52;6.40;;;;;;;9.53;100.00;94887.50;5022919;28;20495;-74
2022/09/30 08:26:36;;;;;;;13.48;6.93;;;;;;;9.43;100.00;94888.38;5010937;28;20068;-74
2022/09/30 08:29:02;;;;;;;14.65;7.20;;;;;;;9.27;100.00;94886.97;5027571;28;20049;-75
2022/09/30 08:31:28;;;;;;;14.32;7.05;;;;;;;9.31;100.00;94890.56;5027857;28;20066;-74
2022/09/30 08:33:53;;;;;;;11.10;4.97;;;;;;;9.79;100.00;94895.91;5006112;28;20046;-75
2022/09/30 08:36:21;;;;;;;8.10;3.95;;;;;;;9.86;100.00;94901.63;5025794;28;20037;-75
2022/09/30 08:38:47;;;;;;;7.15;4.20;;;;;;;9.96;100.00;94899.97;5027716;28;20037;-75
2022/09/30 08:41:37;;;;;;;9.25;4.82;;;;;;;9.96;100.00;94899.97;5027304;28;20533;-75
2022/09/30 08:44:24;;;;;;;10.27;4.97;;;;;;;10.22;100.00;94903.84;5029998;28;20056;-75
2022/09/30 08:47:01;;;;;;;9.07;4.70;;;;;;;10.25;100.00;94901.72;5032649;28;20044;-77
2022/09/30 08:49:57;;;;;;;7.10;4.00;;;;;;;9.98;100.00;94908.34;5025951;28;20099;-75
2022/09/30 08:52:30;;;;;;;9.05;3.60;;;;;;;9.98;100.00;94913.59;5032892;28;20048;-75
2022/09/30 08:54:56;;;;;;;5.22;3.08;;;;;;;10.13;100.00;94916.06;5029284;28;20046;-75
2022/09/30 08:57:23;;;;;;;5.85;3.20;;;;;;;9.73;100.00;94917.28;5030653;28;20053;-76
2022/09/30 08:59:57;;;;;;;7.32;3.40;;;;;;;9.65;100.00;94927.31;5034650;28;20044;-74
2022/09/30 09:02:31;;;;;;;8.43;3.23;;;;;;;9.52;100.00;94928.75;5030170;28;20044;-76
2022/09/30 09:05:01;;;;;;;7.40;3.47;;;;;;;9.40;100.00;94923.06;5013032;28;20045;-74
2022/09/30 09:07:44;;;;;;;5.63;3.50;;;;;;;9.58;100.00;94926.84;5024057;28;20055;-74
2022/09/30 09:10:32;;;;;;;5.65;3.05;;;;;;;9.74;100.00;94935.38;5036146;28;20064;-73
2022/09/30 09:13:03;;;;;;;5.25;3.42;;;;;;;9.99;100.00;94936.97;5032809;28;20049;-75
2022/09/30 09:15:40;;;;;;;5.70;3.05;;;;;;;9.99;100.00;94951.97;5027836;28;20762;-76
2022/09/30 09:18:23;;;;;;;9.70;3.35;;;;;;;9.91;100.00;94944.69;5031182;28;20041;-77
2022/09/30 09:20:58;;;;;;;4.70;2.88;;;;;;;10.16;100.00;94957.56;5007393;28;20042;-76
2022/09/30 09:23:25;;;;;;;6.40;3.45;;;;;;;10.32;100.00;94960.03;5022619;28;20115;-77
2022/09/30 09:25:54;;;;;;;7.65;3.72;;;;;;;10.27;100.00;94953.00;5031568;28;20041;-76
2022/09/30 09:28:35;;;;;;;5.70;2.60;;;;;;;10.14;100.00;94959.69;5028430;28;20423;-75
2022/09/30 09:31:02;;;;;;;4.10;2.35;;;;;;;10.20;100.00;94958.56;5011481;28;20091;-76
2022/09/30 09:33:38;;;;;;;3.63;2.45;;;;;;;10.15;100.00;94960.47;5025838;28;20067;-75
2022/09/30 09:36:28;;;;;;;4.45;2.00;;;;;;;10.32;100.00;94965.28;5032448;28;20526;-75
2022/09/30 09:39:25;;;;;;;3.58;2.30;;;;;;;10.16;100.00;94962.03;5009905;28;20041;-76
2022/09/30 09:42:02;;;;;;;3.03;2.10;;;;;;;10.13;100.00;94962.56;5030050;28;20068;-75
2022/09/30 09:44:48;;;;;;;3.30;2.00;;;;;;;10.32;100.00;94960.03;5017720;28;20423;-76
2022/09/30 09:47:15;;;;;;;3.05;1.90;;;;;;;10.27;100.00;94960.06;5045582;28;20511;-76
2022/09/30 09:49:45;;;;;;;4.45;1.90;;;;;;;10.14;100.00;94964.97;5038351;28;20033;-75
2022/09/30 09:52:13;;;;;;;4.35;2.00;;;;;;;10.19;100.00;94970.16;5033379;28;20046;-77
2022/09/30 09:54:41;;;;;;;4.35;1.95;;;;;;;10.34;100.00;94968.44;5027565;28;20041;-76
2022/09/30 09:57:09;;;;;;;4.20;2.08;;;;;;;10.54;100.00;94952.44;5031020;28;20171;-77
2022/09/30 09:59:36;;;;;;;2.85;1.85;;;;;;;10.37;100.00;94941.56;5031078;28;20064;-78
2022/09/30 10:02:02;;;;;;;5.57;2.20;;;;;;;10.72;100.00;94944.84;5008551;28;20538;-76
2022/09/30 10:04:32;;;;;;;3.42;2.00;;;;;;;11.12;100.00;94940.06;5018052;28;20540;-79
2022/09/30 10:06:58;;;;;;;7.20;2.47;;;;;;;11.11;100.00;94949.03;5031885;28;20030;-77
2022/09/30 10:09:35;;;;;;;3.38;2.00;;;;;;;11.10;100.00;94963.25;5021012;28;20041;-76
2022/09/30 10:12:17;;;;;;;3.55;2.38;;;;;;;11.07;100.00;94971.72;5029803;28;20125;-76
2022/09/30 10:15:02;;;;;;;4.75;2.17;;;;;;;11.08;100.00;94971.44;5029173;28;20674;-76
2022/09/30 10:17:30;;;;;;;4.30;2.10;;;;;;;10.71;100.00;94966.94;5032118;28;20045;-77
2022/09/30 10:20:14;;;;;;;4.00;2.42;;;;;;;10.57;100.00;94967.66;5031679;28;20411;-77
2022/09/30 10:22:39;;;;;;;3.38;2.10;;;;;;;10.77;100.00;94970.31;5032272;28;20037;-77
2022/09/30 10:25:09;;;;;;;4.07;2.28;;;;;;;10.68;100.00;94967.50;5012650;28;20061;-76
2022/09/30 10:27:35;;;;;;;3.55;2.15;;;;;;;10.69;100.00;94969.88;5030362;28;20107;-77
2022/09/30 10:30:01;;;;;;;3.22;2.13;;;;;;;10.68;100.00;94964.88;5002227;28;20042;-76
2022/09/30 10:32:28;;;;;;;3.50;2.00;;;;;;;10.57;100.00;94957.13;5030641;28;20499;-77
2022/09/30 10:34:59;;;;;;;2.70;1.70;;;;;;;10.71;100.00;94966.94;5025944;28;20474;-76
2022/09/30 10:37:24;;;;;;;2.15;1.60;;;;;;;10.96;100.00;94967.66;5013727;28;20041;-77
2022/09/30 10:40:02;;;;;;;4.43;1.80;;;;;;;10.86;100.00;94961.50;5009433;28;20048;-77
2022/09/30 10:42:33;;;;;;;2.70;1.70;;;;;;;11.36;100.00;94960.25;5028081;28;20084;-77
2022/09/30 10:45:15;;;;;;;2.92;1.85;;;;;;;12.00;100.00;94968.44;5014194;28;20041;-77
2022/09/30 10:47:49;;;;;;;3.55;1.80;;;;;;;11.93;100.00;94963.53;5012975;28;20103;-79
2022/09/30 10:50:19;;;;;;;2.67;1.60;;;;;;;12.04;100.00;94968.63;5031061;28;20050;-77
2022/09/30 10:53:19;;;;;;;1.60;1.40;;;;;;;12.97;100.00;94973.69;5032965;28;20045;-77
2022/09/30 10:55:45;;;;;;;4.15;1.92;;;;;;;13.29;100.00;94969.28;5031045;28;20064;-76
2022/09/30 10:58:34;;;;;;;2.50;1.70;;;;;;;14.15;100.00;94971.97;5040712;28;20045;-77
2022/09/30 11:01:13;;;;;;;3.38;1.58;;;;;;;14.82;100.00;94983.44;5026940;28;20458;-76
2022/09/30 11:04:10;;;;;;;2.40;1.77;;;;;;;14.61;100.00;94977.91;5020296;28;20459;-77
2022/09/30 11:06:41;;;;;;;4.03;2.20;;;;;;;13.55;100.00;94986.41;5029036;28;20049;-77
2022/09/30 11:09:50;;;;;;;2.80;1.50;;;;;;;12.79;100.00;94979.88;5028976;28;20065;-77
2022/09/30 11:12:48;;;;;;;2.08;1.55;;;;;;;12.48;100.00;94983.91;4954435;28;20059;-78
2022/09/30 11:15:21;;;;;;;2.78;1.80;;;;;;;12.27;100.00;94999.34;4949281;28;20134;-77
2022/09/30 11:18:04;;;;;;;2.38;1.73;;;;;;;11.66;100.00;95006.41;4982436;28;20085;-77
2022/09/30 11:20:40;;;;;;;2.50;1.50;;;;;;;11.47;100.00;94997.75;5026128;28;20067;-77
2022/09/30 11:23:28;;;;;;;2.40;1.70;;;;;;;11.51;100.00;95010.06;5032689;28;20092;-77
2022/09/30 11:26:06;;;;;;;2.97;1.65;;;;;;;11.13;100.00;95014.56;5013756;28;20120;-75
2022/09/30 11:28:58;;;;;;;3.10;1.90;;;;;;;10.89;100.00;95015.44;5034121;28;20041;-76
2022/09/30 11:31:40;;;;;;;4.03;1.88;;;;;;;10.80;100.00;95017.88;5030954;28;20041;-76
2022/09/30 11:34:21;;;;;;;4.53;1.95;;;;;;;10.76;100.00;95016.91;5029382;28;20045;-77
2022/09/30 11:37:04;;;;;;;2.78;1.80;;;;;;;10.73;100.00;95022.69;5021761;28;20487;-76
2022/09/30 11:39:52;;;;;;;4.90;2.00;;;;;;;10.81;100.00;95014.19;5007595;28;20041;-76
2022/09/30 11:42:47;;;;;;;4.50;2.20;;;;;;;10.79;100.00;94992.66;5027149;28;20044;-76
2022/09/30 11:45:21;;;;;;;6.75;2.13;;;;;;;10.94;100.00;94990.88;5029051;28;20056;-77